Time,TemperatureF,DewpointF,PressureIn,WindDirection,WindDirectionDegrees,WindSpeedMPH,WindSpeedGustMPH,Humidity,HourlyPrecipIn,Conditions,Clouds,dailyrainin,SoftwareType,DateUTC
2013-02-05 00:02:00,23.6,15.3,30.17,SSE,152,0.0,0.0,70,0.00,,---,0.01,VWS V14.01,2013-02-05 08:02:00,
2013-02-05 00:07:00,23.4,16.4,30.17,SSE,152,0.0,0.0,74,0.00,,---,0.00,VWS V14.01,2013-02-05 08:07:00,
2013-02-05 00:12:00,23.1,15.1,30.17,SSE,152,0.0,0.0,71,0.00,,---,0.00,VWS V14.01,2013-02-05 08:12:00,
2013-02-05 00:17:00,22.9,14.6,30.17,SSE,152,0.0,0.0,70,0.00,,---,0.00,VWS V14.01,2013-02-05 08:17:00,
2013-02-05 00:22:00,22.7,14.1,30.17,SSE,152,0.0,0.0,69,0.00,,---,0.00,VWS V14.01,2013-02-05 08:22:00,
2013-02-05 00:27:00,22.7,14.4,30.17,SSE,152,0.0,0.0,70,0.00,,---,0.00,VWS V14.01,2013-02-05 08:27:00,
2013-02-05 00:32:00,22.8,14.2,30.17,SSE,152,0.0,0.0,69,0.00,,---,0.00,VWS V14.01,2013-02-05 08:32:00,
2013-02-05 00:37:00,22.8,14.2,30.17,SSE,152,0.0,0.0,69,0.00,,---,0.00,VWS V14.01,2013-02-05 08:37:00,
2013-02-05 00:42:00,22.8,13.5,30.17,SSE,152,0.0,0.0,67,0.00,,---,0.00,VWS V14.01,2013-02-05 08:42:00,
2013-02-05 00:47:00,22.9,14.3,30.17,SSE,152,0.0,0.0,69,0.00,,---,0.00,VWS V14.01,2013-02-05 08:47:00,
2013-02-05 00:52:00,22.8,14.5,30.17,SSE,152,0.0,0.0,70,0.00,,---,0.00,VWS V14.01,2013-02-05 08:52:00,
2013-02-05 00:57:00,22.9,15.2,30.17,SSE,152,0.0,0.0,72,0.00,,---,0.00,VWS V14.01,2013-02-05 08:57:00,
2013-02-05 01:02:00,22.9,15.2,30.16,SSE,152,0.0,0.0,72,0.00,,---,0.00,VWS V14.01,2013-02-05 09:02:00,
2013-02-05 01:07:00,23.3,16.2,30.17,SSE,152,0.0,0.0,74,0.00,,---,0.00,VWS V14.01,2013-02-05 09:07:00,
2013-02-05 01:12:00,23.2,14.9,30.17,SSE,152,0.0,0.0,70,0.00,,---,0.00,VWS V14.01,2013-02-05 09:12:00,
2013-02-05 01:17:00,23.1,15.8,30.16,SSE,151,0.0,0.0,73,0.00,,---,0.00,VWS V14.01,2013-02-05 09:17:00,
2013-02-05 01:22:00,23.1,14.1,30.17,SSE,152,0.0,0.0,68,0.00,,---,0.00,VWS V14.01,2013-02-05 09:22:00,
2013-02-05 01:27:00,23.0,13.7,30.17,SSE,152,0.0,0.0,67,0.00,,---,0.00,VWS V14.01,2013-02-05 09:27:00,
2013-02-05 01:32:00,22.8,14.2,30.17,SSE,152,0.0,0.0,69,0.00,,---,0.00,VWS V14.01,2013-02-05 09:32:00,
2013-02-05 01:37:00,22.5,13.6,30.17,SSE,152,0.0,0.0,68,0.00,,---,0.00,VWS V14.01,2013-02-05 09:37:00,
2013-02-05 01:42:00,22.4,13.4,30.17,SSE,152,0.0,0.0,68,0.00,,---,0.00,VWS V14.01,2013-02-05 09:42:00,
2013-02-05 01:47:00,22.2,12.9,30.17,SSE,152,0.0,0.0,67,0.00,,---,0.00,VWS V14.01,2013-02-05 09:47:00,
2013-02-05 01:52:00,22.1,12.8,30.17,SSE,152,0.0,0.0,67,0.00,,---,0.00,VWS V14.01,2013-02-05 09:52:00,
2013-02-05 01:57:00,22.2,12.9,30.17,SSE,152,0.0,0.0,67,0.00,,---,0.00,VWS V14.01,2013-02-05 09:57:00,
2013-02-05 02:02:00,22.1,11.8,30.17,SSE,152,0.0,0.0,64,0.00,,---,0.00,VWS V14.01,2013-02-05 10:02:00,
2013-02-05 02:07:00,22.5,12.5,30.17,SSE,152,0.0,0.0,65,0.00,,---,0.00,VWS V14.01,2013-02-05 10:07:00,
2013-02-05 02:12:00,22.8,13.5,30.17,SSE,152,0.0,0.0,67,0.00,,---,0.00,VWS V14.01,2013-02-05 10:12:00,
2013-02-05 02:17:00,22.5,12.5,30.17,SSE,152,0.0,0.0,65,0.00,,---,0.00,VWS V14.01,2013-02-05 10:17:00,
2013-02-05 02:22:00,22.6,12.6,30.16,SSE,151,0.0,0.0,65,0.00,,---,0.00,VWS V14.01,2013-02-05 10:22:00,
2013-02-05 02:28:00,22.5,11.8,30.16,SSE,152,0.0,0.0,63,0.00,,---,0.00,VWS V14.01,2013-02-05 10:28:00,
2013-02-05 02:33:00,22.4,12.8,30.16,SSE,152,0.0,0.0,66,0.00,,---,0.00,VWS V14.01,2013-02-05 10:33:00,
2013-02-05 02:38:00,22.2,12.2,30.16,SSE,152,0.0,0.0,65,0.00,,---,0.00,VWS V14.01,2013-02-05 10:38:00,
2013-02-05 02:43:00,22.3,12.7,30.16,SSE,152,0.0,0.0,66,0.00,,---,0.00,VWS V14.01,2013-02-05 10:43:00,
2013-02-05 02:48:00,22.3,13.7,30.17,SSE,152,0.0,0.0,69,0.00,,---,0.00,VWS V14.01,2013-02-05 10:48:00,
2013-02-05 02:53:00,22.2,13.6,30.16,SSE,152,0.0,0.0,69,0.00,,---,0.00,VWS V14.01,2013-02-05 10:53:00,
2013-02-05 02:58:00,22.2,12.9,30.17,SSE,152,0.0,0.0,67,0.00,,---,0.00,VWS V14.01,2013-02-05 10:58:00,
2013-02-05 03:03:00,22.1,13.2,30.16,SSE,152,0.0,0.0,68,0.00,,---,0.00,VWS V14.01,2013-02-05 11:03:00,
2013-02-05 03:08:00,21.8,14.2,30.16,SSE,152,0.0,0.0,72,0.00,,---,0.00,VWS V14.01,2013-02-05 11:08:00,
2013-02-05 03:13:00,21.6,11.7,30.16,SSE,152,0.0,0.0,65,0.00,,---,0.00,VWS V14.01,2013-02-05 11:13:00,
2013-02-05 03:18:00,21.7,12.8,30.16,SSE,152,0.0,0.0,68,0.00,,---,0.00,VWS V14.01,2013-02-05 11:18:00,
2013-02-05 03:23:00,21.6,13.0,30.16,SSE,152,0.0,0.0,69,0.00,,---,0.00,VWS V14.01,2013-02-05 11:23:00,
2013-02-05 03:28:00,21.6,13.7,30.16,SSE,152,0.0,0.0,71,0.00,,---,0.00,VWS V14.01,2013-02-05 11:28:00,
2013-02-05 03:33:00,21.4,12.2,30.16,SSE,152,0.0,0.0,67,0.00,,---,0.00,VWS V14.01,2013-02-05 11:33:00,
2013-02-05 03:38:00,21.2,13.0,30.16,SSE,152,0.0,0.0,70,0.00,,---,0.00,VWS V14.01,2013-02-05 11:38:00,
2013-02-05 03:43:00,21.1,12.2,30.15,SSE,152,0.0,0.0,68,0.00,,---,0.00,VWS V14.01,2013-02-05 11:43:00,
2013-02-05 03:48:00,21.1,13.2,30.15,SSE,151,0.0,0.0,71,0.00,,---,0.00,VWS V14.01,2013-02-05 11:48:00,
2013-02-05 03:53:00,21.4,12.2,30.15,SSE,152,0.0,0.0,67,0.00,,---,0.00,VWS V14.01,2013-02-05 11:53:00,
2013-02-05 03:58:00,21.3,12.7,30.15,SSE,152,0.0,0.0,69,0.00,,---,0.00,VWS V14.01,2013-02-05 11:58:00,
2013-02-05 04:03:00,21.1,12.9,30.15,SSE,152,0.0,0.0,70,0.00,,---,0.00,VWS V14.01,2013-02-05 12:03:00,
2013-02-05 04:08:00,21.2,12.3,30.15,SSE,152,0.0,0.0,68,0.00,,---,0.00,VWS V14.01,2013-02-05 12:08:00,
2013-02-05 04:13:00,21.1,13.2,30.15,SSE,152,0.0,0.0,71,0.00,,---,0.00,VWS V14.01,2013-02-05 12:13:00,
2013-02-05 04:18:00,20.8,12.9,30.15,SSE,152,0.0,0.0,71,0.00,,---,0.00,VWS V14.01,2013-02-05 12:18:00,
2013-02-05 04:23:00,20.6,13.3,30.15,SSE,152,0.0,0.0,73,0.00,,---,0.00,VWS V14.01,2013-02-05 12:23:00,
2013-02-05 04:28:00,20.4,12.2,30.15,SSE,152,0.0,0.0,70,0.00,,---,0.00,VWS V14.01,2013-02-05 12:28:00,
2013-02-05 04:34:00,20.6,11.7,30.15,SSE,151,0.0,0.0,68,0.00,,---,0.00,VWS V14.01,2013-02-05 12:34:00,
2013-02-05 04:39:00,20.9,11.7,30.15,SSE,152,0.0,0.0,67,0.00,,---,0.00,VWS V14.01,2013-02-05 12:39:00,
2013-02-05 04:44:00,21.0,11.4,30.15,SSE,152,0.0,0.0,66,0.00,,---,0.00,VWS V14.01,2013-02-05 12:44:00,
2013-02-05 04:49:00,21.1,10.8,30.15,SSE,152,0.0,0.0,64,0.00,,---,0.00,VWS V14.01,2013-02-05 12:49:00,
2013-02-05 04:54:00,21.2,11.3,30.14,SSE,152,0.0,0.0,65,0.00,,---,0.00,VWS V14.01,2013-02-05 12:54:00,
2013-02-05 04:59:00,21.4,11.5,30.15,SSE,152,0.0,0.0,65,0.00,,---,0.00,VWS V14.01,2013-02-05 12:59:00,
2013-02-05 05:04:00,21.4,11.8,30.15,SSE,152,0.0,0.0,66,0.00,,---,0.00,VWS V14.01,2013-02-05 13:04:00,
2013-02-05 05:09:00,21.2,10.2,30.15,SSE,152,0.0,0.0,62,0.00,,---,0.00,VWS V14.01,2013-02-05 13:09:00,
2013-02-05 05:14:00,21.4,10.8,30.15,SSE,152,0.0,0.0,63,0.00,,---,0.00,VWS V14.01,2013-02-05 13:14:00,
2013-02-05 05:19:00,21.3,10.7,30.15,SSE,152,0.0,0.0,63,0.00,,---,0.00,VWS V14.01,2013-02-05 13:19:00,
2013-02-05 05:24:00,21.1,10.5,30.15,SSE,152,0.0,0.0,63,0.00,,---,0.00,VWS V14.01,2013-02-05 13:24:00,
2013-02-05 05:29:00,21.3,10.7,30.15,SSE,152,0.0,0.0,63,0.00,,---,0.00,VWS V14.01,2013-02-05 13:29:00,
2013-02-05 05:34:00,21.5,11.6,30.15,SSE,152,0.0,0.0,65,0.00,,---,0.00,VWS V14.01,2013-02-05 13:34:00,
2013-02-05 05:39:00,21.2,10.2,30.15,SSE,152,0.0,0.0,62,0.00,,---,0.00,VWS V14.01,2013-02-05 13:39:00,
2013-02-05 05:44:00,21.1,10.8,30.15,SSE,152,0.0,0.0,64,0.00,,---,0.00,VWS V14.01,2013-02-05 13:44:00,
2013-02-05 05:49:00,21.2,13.9,30.15,SSE,152,0.0,0.0,73,0.00,,---,0.00,VWS V14.01,2013-02-05 13:49:00,
2013-02-05 05:54:00,21.0,12.1,30.15,SSE,152,0.0,0.0,68,0.00,,---,0.00,VWS V14.01,2013-02-05 13:54:00,
2013-02-05 05:59:00,21.0,11.8,30.15,SSE,152,0.0,0.0,67,0.00,,---,0.00,VWS V14.01,2013-02-05 13:59:00,
2013-02-05 06:04:00,20.9,12.0,30.15,SSE,152,0.0,0.0,68,0.00,,---,0.00,VWS V14.01,2013-02-05 14:04:00,
2013-02-05 06:09:00,20.8,10.9,30.15,SSE,152,0.0,0.0,65,0.00,,---,0.00,VWS V14.01,2013-02-05 14:09:00,
2013-02-05 06:14:00,21.0,11.8,30.15,SSE,152,0.0,0.0,67,0.00,,---,0.00,VWS V14.01,2013-02-05 14:14:00,
2013-02-05 06:19:00,21.1,11.5,30.15,SSE,152,0.0,0.0,66,0.00,,---,0.00,VWS V14.01,2013-02-05 14:19:00,
2013-02-05 06:24:00,21.1,11.5,30.15,SSE,152,0.0,0.0,66,0.00,,---,0.00,VWS V14.01,2013-02-05 14:24:00,
2013-02-05 06:29:00,21.2,11.6,30.15,SSE,152,0.0,0.0,66,0.00,,---,0.00,VWS V14.01,2013-02-05 14:29:00,
2013-02-05 06:34:00,21.1,10.1,30.15,SSE,152,0.0,0.0,62,0.00,,---,0.00,VWS V14.01,2013-02-05 14:34:00,
2013-02-05 06:39:00,21.0,11.1,30.16,SSE,152,0.0,0.0,65,0.00,,---,0.00,VWS V14.01,2013-02-05 14:39:00,
2013-02-05 06:44:00,21.0,10.0,30.16,SSE,151,0.0,0.0,62,0.00,,---,0.00,VWS V14.01,2013-02-05 14:44:00,
2013-02-05 06:49:00,21.4,10.8,30.16,SSE,152,0.0,0.0,63,0.00,,---,0.00,VWS V14.01,2013-02-05 14:49:00,
2013-02-05 06:54:00,21.5,11.2,30.16,SSE,152,0.0,0.0,64,0.00,,---,0.00,VWS V14.01,2013-02-05 14:54:00,
2013-02-05 07:00:00,21.3,12.1,30.16,SSE,152,0.0,0.0,67,0.00,,---,0.00,VWS V14.01,2013-02-05 15:00:00,
2013-02-05 07:05:00,21.2,10.9,30.16,SSE,152,0.0,0.0,64,0.00,,---,0.00,VWS V14.01,2013-02-05 15:05:00,
2013-02-05 07:10:00,21.2,10.9,30.17,SSE,152,0.0,0.0,64,0.00,,---,0.00,VWS V14.01,2013-02-05 15:10:00,
2013-02-05 07:15:00,21.4,10.4,30.17,SSE,151,0.0,0.0,62,0.00,,---,0.00,VWS V14.01,2013-02-05 15:15:00,
2013-02-05 07:20:00,21.5,12.3,30.17,SSE,152,0.0,0.0,67,0.00,,---,0.00,VWS V14.01,2013-02-05 15:20:00,
2013-02-05 07:25:00,21.6,11.3,30.17,SSE,152,0.0,0.0,64,0.00,,---,0.00,VWS V14.01,2013-02-05 15:25:00,
2013-02-05 07:30:00,21.8,11.2,30.17,SSE,152,0.0,0.0,63,0.00,,---,0.00,VWS V14.01,2013-02-05 15:30:00,
2013-02-05 07:35:00,22.1,11.4,30.17,SSE,152,0.0,0.0,63,0.00,,---,0.00,VWS V14.01,2013-02-05 15:35:00,
2013-02-05 07:40:00,22.7,10.9,30.17,SSE,152,0.0,0.0,60,0.00,,---,0.00,VWS V14.01,2013-02-05 15:40:00,
2013-02-05 07:45:00,23.5,11.3,30.17,SSE,153,0.0,0.0,59,0.00,,---,0.00,VWS V14.01,2013-02-05 15:45:00,
2013-02-05 07:50:00,24.4,12.9,30.17,SSE,151,0.0,0.0,61,0.00,,---,0.00,VWS V14.01,2013-02-05 15:50:00,
2013-02-05 07:55:00,25.0,14.6,30.17,SSE,152,0.0,0.0,64,0.00,,---,0.00,VWS V14.01,2013-02-05 15:55:00,
2013-02-05 08:00:00,25.5,14.7,30.17,SSE,152,0.0,0.0,63,0.00,,---,0.00,VWS V14.01,2013-02-05 16:00:00,
2013-02-05 08:05:00,26.0,14.4,30.17,SSE,152,0.0,0.0,61,0.00,,---,0.00,VWS V14.01,2013-02-05 16:05:00,
2013-02-05 08:10:00,26.6,16.8,30.17,SSE,151,0.0,0.0,66,0.00,,---,0.00,VWS V14.01,2013-02-05 16:10:00,
2013-02-05 08:15:00,27.4,17.9,30.17,SSE,152,0.0,0.0,67,0.00,,---,0.00,VWS V14.01,2013-02-05 16:15:00,
2013-02-05 08:20:00,28.6,19.0,30.17,SSE,152,0.0,0.0,67,0.00,,---,0.00,VWS V14.01,2013-02-05 16:20:00,
2013-02-05 08:25:00,29.8,19.1,30.17,SSE,152,0.0,0.0,64,0.00,,---,0.00,VWS V14.01,2013-02-05 16:25:00,
2013-02-05 08:30:00,30.8,19.3,30.17,SSE,151,0.0,0.0,62,0.00,,---,0.00,VWS V14.01,2013-02-05 16:30:00,
2013-02-05 08:35:00,31.6,19.7,30.17,SSE,152,0.0,0.0,61,0.00,,---,0.00,VWS V14.01,2013-02-05 16:35:00,
2013-02-05 08:40:00,32.4,20.1,30.17,SSE,152,0.0,0.0,60,0.00,,---,0.00,VWS V14.01,2013-02-05 16:40:00,
2013-02-05 08:45:00,33.5,20.7,30.17,SSE,152,0.0,0.0,59,0.00,,---,0.00,VWS V14.01,2013-02-05 16:45:00,
2013-02-05 08:51:00,34.5,21.3,30.17,SSE,152,0.0,0.0,58,0.00,,---,0.00,VWS V14.01,2013-02-05 16:51:00,
2013-02-05 08:56:00,35.4,21.3,30.16,SSE,152,0.0,0.0,56,0.00,,---,0.00,VWS V14.01,2013-02-05 16:56:00,
2013-02-05 09:01:00,36.4,21.4,30.17,SSE,152,0.0,0.0,54,0.00,,---,0.00,VWS V14.01,2013-02-05 17:01:00,
2013-02-05 09:06:00,37.4,21.4,30.16,SSE,152,0.0,0.0,52,0.00,,---,0.00,VWS V14.01,2013-02-05 17:06:00,
2013-02-05 09:11:00,38.5,22.0,30.17,SSE,152,0.0,0.0,51,0.00,,---,0.00,VWS V14.01,2013-02-05 17:11:00,
2013-02-05 09:16:00,39.7,22.6,30.17,SSE,152,0.0,0.0,50,0.00,,---,0.00,VWS V14.01,2013-02-05 17:16:00,
2013-02-05 09:21:00,41.0,21.8,30.17,SSE,152,0.0,0.0,46,0.00,,---,0.00,VWS V14.01,2013-02-05 17:21:00,
2013-02-05 09:26:00,42.6,20.6,30.16,WNW,293,0.0,1.0,41,0.00,,---,0.00,VWS V14.01,2013-02-05 17:26:00,
2013-02-05 09:31:00,44.1,19.5,30.16,WNW,297,0.0,0.0,37,0.00,,---,0.00,VWS V14.01,2013-02-05 17:31:00,
2013-02-05 09:36:00,45.0,19.0,30.16,NW,316,0.0,0.0,35,0.00,,---,0.00,VWS V14.01,2013-02-05 17:36:00,
2013-02-05 09:41:00,46.0,17.1,30.16,NNW,329,1.0,1.0,31,0.00,,---,0.00,VWS V14.01,2013-02-05 17:41:00,
2013-02-05 09:46:00,46.4,18.2,30.16,West,269,0.0,0.0,32,0.00,,---,0.00,VWS V14.01,2013-02-05 17:46:00,
2013-02-05 09:51:00,46.8,18.5,30.16,NW,304,2.0,2.0,32,0.00,,---,0.00,VWS V14.01,2013-02-05 17:51:00,
2013-02-05 09:56:00,47.4,18.3,30.16,NW,308,2.0,3.0,31,0.00,,---,0.00,VWS V14.01,2013-02-05 17:56:00,
2013-02-05 10:01:00,48.0,18.8,30.16,NNW,345,0.0,0.0,31,0.00,,---,0.00,VWS V14.01,2013-02-05 18:01:00,
2013-02-05 10:06:00,48.6,17.8,30.16,WNW,289,0.0,2.0,29,0.00,,---,0.00,VWS V14.01,2013-02-05 18:06:00,
2013-02-05 10:11:00,49.1,19.0,30.16,West,264,0.0,0.0,30,0.00,,---,0.00,VWS V14.01,2013-02-05 18:11:00,
2013-02-05 10:16:00,49.6,17.0,30.16,WNW,295,2.0,3.0,27,0.00,,---,0.00,VWS V14.01,2013-02-05 18:16:00,
2013-02-05 10:21:00,49.7,17.1,30.16,South,181,0.0,2.0,27,0.00,,---,0.00,VWS V14.01,2013-02-05 18:21:00,
2013-02-05 10:26:00,49.9,16.4,30.16,SE,146,1.0,2.0,26,0.00,,---,0.00,VWS V14.01,2013-02-05 18:26:00,
2013-02-05 10:31:00,50.1,15.7,30.16,West,281,1.0,3.0,25,0.00,,---,0.00,VWS V14.01,2013-02-05 18:31:00,
2013-02-05 10:36:00,50.3,16.7,30.16,West,274,1.0,1.0,26,0.00,,---,0.00,VWS V14.01,2013-02-05 18:36:00,
2013-02-05 10:41:00,50.5,17.8,30.16,WNW,283,0.0,2.0,27,0.00,,---,0.00,VWS V14.01,2013-02-05 18:41:00,
2013-02-05 10:46:00,50.8,18.0,30.16,West,271,2.0,3.0,27,0.00,,---,0.00,VWS V14.01,2013-02-05 18:46:00,
2013-02-05 10:51:00,51.2,18.4,30.15,ESE,122,0.0,0.0,27,0.00,,---,0.00,VWS V14.01,2013-02-05 18:51:00,
2013-02-05 10:57:00,51.8,18.0,30.15,SE,139,0.0,1.0,26,0.00,,---,0.00,VWS V14.01,2013-02-05 18:57:00,
2013-02-05 11:02:00,52.4,16.7,30.15,ESE,121,0.0,0.0,24,0.00,,---,0.00,VWS V14.01,2013-02-05 19:02:00,
2013-02-05 11:07:00,52.4,16.7,30.14,West,276,1.0,2.0,24,0.00,,---,0.00,VWS V14.01,2013-02-05 19:07:00,
2013-02-05 11:12:00,52.4,16.7,30.14,WNW,291,0.0,1.0,24,0.00,,---,0.00,VWS V14.01,2013-02-05 19:12:00,
2013-02-05 11:17:00,52.9,17.1,30.13,ESE,113,0.0,1.0,24,0.00,,---,0.00,VWS V14.01,2013-02-05 19:17:00,
2013-02-05 11:22:00,53.1,17.3,30.13,SSW,208,0.0,1.0,24,0.00,,---,0.00,VWS V14.01,2013-02-05 19:22:00,
2013-02-05 11:27:00,53.1,17.3,30.13,WNW,285,1.0,2.0,24,0.00,,---,0.00,VWS V14.01,2013-02-05 19:27:00,
2013-02-05 11:32:00,53.2,18.3,30.12,SSE,155,0.0,0.0,25,0.00,,---,0.00,VWS V14.01,2013-02-05 19:32:00,
2013-02-05 11:37:00,53.6,19.6,30.12,ESE,113,1.0,1.0,26,0.00,,---,0.00,VWS V14.01,2013-02-05 19:37:00,
2013-02-05 11:42:00,53.6,16.7,30.12,SSW,200,1.0,1.0,23,0.00,,---,0.00,VWS V14.01,2013-02-05 19:42:00,
2013-02-05 11:47:00,53.5,18.6,30.12,NW,315,0.0,0.0,25,0.00,,---,0.00,VWS V14.01,2013-02-05 19:47:00,
2013-02-05 11:52:00,53.3,17.5,30.11,NNW,329,1.0,2.0,24,0.00,,---,0.00,VWS V14.01,2013-02-05 19:52:00,
2013-02-05 11:57:00,53.2,17.4,30.11,SSE,147,0.0,0.0,24,0.00,,---,0.00,VWS V14.01,2013-02-05 19:57:00,
2013-02-05 12:03:00,53.3,16.5,30.10,East,86,0.0,2.0,23,0.00,,---,0.00,VWS V14.01,2013-02-05 20:03:00,
2013-02-05 12:08:00,53.4,15.5,30.10,West,274,2.0,3.0,22,0.00,,---,0.00,VWS V14.01,2013-02-05 20:08:00,
2013-02-05 12:13:00,53.2,14.3,30.09,WNW,291,0.0,1.0,21,0.00,,---,0.00,VWS V14.01,2013-02-05 20:13:00,
2013-02-05 12:19:00,53.4,14.5,30.09,SE,142,0.0,0.0,21,0.00,,---,0.00,VWS V14.01,2013-02-05 20:19:00,
2013-02-05 12:24:00,53.6,14.6,30.09,NW,319,2.0,4.0,21,0.00,,---,0.00,VWS V14.01,2013-02-05 20:24:00,
2013-02-05 12:29:00,53.6,13.5,30.08,SW,218,0.0,1.0,20,0.00,,---,0.00,VWS V14.01,2013-02-05 20:29:00,
2013-02-05 12:34:00,53.8,15.9,30.08,WSW,245,0.0,1.0,22,0.00,,---,0.00,VWS V14.01,2013-02-05 20:34:00,
2013-02-05 12:39:00,53.9,14.9,30.08,NNE,20,0.0,0.0,21,0.00,,---,0.00,VWS V14.01,2013-02-05 20:39:00,
2013-02-05 12:44:00,53.8,14.8,30.08,West,280,3.0,3.0,21,0.00,,---,0.00,VWS V14.01,2013-02-05 20:44:00,
2013-02-05 12:49:00,53.4,14.5,30.07,NW,312,2.0,2.0,21,0.00,,---,0.00,VWS V14.01,2013-02-05 20:49:00,
2013-02-05 12:54:00,53.5,13.4,30.07,NW,310,0.0,3.0,20,0.00,,---,0.00,VWS V14.01,2013-02-05 20:54:00,
2013-02-05 12:59:00,53.4,13.4,30.06,NNW,328,5.0,5.0,20,0.00,,---,0.00,VWS V14.01,2013-02-05 20:59:00,
2013-02-05 13:04:00,53.1,14.2,30.06,NW,307,1.0,3.0,21,0.00,,---,0.00,VWS V14.01,2013-02-05 21:04:00,
2013-02-05 13:09:00,53.4,15.5,30.05,WSW,240,0.0,1.0,22,0.00,,---,0.00,VWS V14.01,2013-02-05 21:09:00,
2013-02-05 13:14:00,53.4,13.4,30.05,North,356,1.0,7.0,20,0.00,,---,0.00,VWS V14.01,2013-02-05 21:14:00,
2013-02-05 13:19:00,53.1,13.1,30.05,NW,304,0.0,4.0,20,0.00,,---,0.00,VWS V14.01,2013-02-05 21:19:00,
2013-02-05 13:24:00,53.4,13.4,30.05,North,1,0.0,0.0,20,0.00,,---,0.00,VWS V14.01,2013-02-05 21:24:00,
2013-02-05 13:29:00,53.6,13.5,30.05,NW,318,1.0,2.0,20,0.00,,---,0.00,VWS V14.01,2013-02-05 21:29:00,
2013-02-05 13:34:00,53.8,12.5,30.05,SE,139,0.0,0.0,19,0.00,,---,0.00,VWS V14.01,2013-02-05 21:34:00,
2013-02-05 13:39:00,54.2,14.0,30.04,SSE,163,0.0,0.0,20,0.00,,---,0.00,VWS V14.01,2013-02-05 21:39:00,
2013-02-05 13:44:00,54.4,11.8,30.04,West,267,1.0,1.0,18,0.00,,---,0.00,VWS V14.01,2013-02-05 21:44:00,
2013-02-05 13:49:00,54.1,13.9,30.04,ESE,119,0.0,1.0,20,0.00,,---,0.00,VWS V14.01,2013-02-05 21:49:00,
2013-02-05 13:54:00,54.0,16.0,30.03,ESE,120,2.0,2.0,22,0.00,,---,0.00,VWS V14.01,2013-02-05 21:54:00,
2013-02-05 13:59:00,54.2,14.0,30.03,West,271,1.0,1.0,20,0.00,,---,0.00,VWS V14.01,2013-02-05 21:59:00,
2013-02-05 14:04:00,54.1,12.8,30.03,WNW,286,0.0,1.0,19,0.00,,---,0.00,VWS V14.01,2013-02-05 22:04:00,
2013-02-05 14:09:00,54.3,12.9,30.03,South,169,1.0,3.0,19,0.00,,---,0.00,VWS V14.01,2013-02-05 22:09:00,
2013-02-05 14:14:00,54.3,14.1,30.03,South,190,0.0,1.0,20,0.00,,---,0.00,VWS V14.01,2013-02-05 22:14:00,
2013-02-05 14:20:00,54.4,15.3,30.03,WNW,291,0.0,0.0,21,0.00,,---,0.00,VWS V14.01,2013-02-05 22:20:00,
2013-02-05 14:25:00,54.7,13.3,30.02,SSW,203,0.0,0.0,19,0.00,,---,0.00,VWS V14.01,2013-02-05 22:25:00,
2013-02-05 14:30:00,54.8,12.1,30.02,SW,215,0.0,0.0,18,0.00,,---,0.00,VWS V14.01,2013-02-05 22:30:00,
2013-02-05 14:35:00,54.7,13.3,30.02,WSW,256,1.0,1.0,19,0.00,,---,0.00,VWS V14.01,2013-02-05 22:35:00,
2013-02-05 14:40:00,53.9,15.9,30.02,North,352,1.0,3.0,22,0.00,,---,0.00,VWS V14.01,2013-02-05 22:40:00,
2013-02-05 14:45:00,53.4,16.5,30.02,WNW,295,2.0,3.0,23,0.00,,---,0.00,VWS V14.01,2013-02-05 22:45:00,
2013-02-05 14:50:00,53.1,17.3,30.02,NW,311,0.0,1.0,24,0.00,,---,0.00,VWS V14.01,2013-02-05 22:50:00,
2013-02-05 14:55:00,53.5,17.6,30.02,NW,321,1.0,3.0,24,0.00,,---,0.00,VWS V14.01,2013-02-05 22:55:00,
2013-02-05 15:00:00,53.1,17.3,30.02,WNW,300,2.0,3.0,24,0.00,,---,0.00,VWS V14.01,2013-02-05 23:00:00,
2013-02-05 15:05:00,52.8,17.0,30.02,SSE,155,1.0,2.0,24,0.00,,---,0.00,VWS V14.01,2013-02-05 23:05:00,
2013-02-05 15:10:00,53.1,17.3,30.02,WNW,298,3.0,3.0,24,0.00,,---,0.00,VWS V14.01,2013-02-05 23:10:00,
2013-02-05 15:15:00,53.4,18.5,30.01,SE,131,0.0,0.0,25,0.00,,---,0.00,VWS V14.01,2013-02-05 23:15:00,
2013-02-05 15:20:00,53.3,18.4,30.01,ESE,104,0.0,1.0,25,0.00,,---,0.00,VWS V14.01,2013-02-05 23:20:00,
2013-02-05 15:25:00,52.7,17.9,30.01,SW,232,0.0,1.0,25,0.00,,---,0.00,VWS V14.01,2013-02-05 23:25:00,
2013-02-05 15:30:00,52.2,17.5,30.01,SSW,212,0.0,0.0,25,0.00,,---,0.00,VWS V14.01,2013-02-05 23:30:00,
2013-02-05 15:35:00,51.6,16.0,30.01,SW,214,0.0,1.0,24,0.00,,---,0.00,VWS V14.01,2013-02-05 23:35:00,
2013-02-05 15:40:00,51.1,15.6,30.02,NE,53,0.0,0.0,24,0.00,,---,0.00,VWS V14.01,2013-02-05 23:40:00,
2013-02-05 15:45:00,50.4,16.8,30.02,NNW,328,0.0,0.0,26,0.00,,---,0.00,VWS V14.01,2013-02-05 23:45:00,
2013-02-05 15:50:00,49.8,16.3,30.02,SSW,198,0.0,0.0,26,0.00,,---,0.00,VWS V14.01,2013-02-05 23:50:00,
2013-02-05 15:55:00,49.2,16.7,30.02,SW,215,0.0,0.0,27,0.00,,---,0.00,VWS V14.01,2013-02-05 23:55:00,
2013-02-05 16:01:00,48.6,17.0,30.02,West,267,0.0,0.0,28,0.00,,---,0.00,VWS V14.01,2013-02-06 00:01:00,
2013-02-05 16:06:00,48.1,18.1,30.02,SSW,198,0.0,0.0,30,0.00,,---,0.00,VWS V14.01,2013-02-06 00:06:00,
2013-02-05 16:11:00,47.6,19.2,30.02,SSE,162,0.0,0.0,32,0.00,,---,0.00,VWS V14.01,2013-02-06 00:11:00,
2013-02-05 16:16:00,47.1,18.0,30.02,East,84,0.0,0.0,31,0.00,,---,0.00,VWS V14.01,2013-02-06 00:16:00,
2013-02-05 16:21:00,46.7,19.8,30.02,ESE,121,0.0,0.0,34,0.00,,---,0.00,VWS V14.01,2013-02-06 00:21:00,
2013-02-05 16:26:00,46.3,19.5,30.02,ESE,121,0.0,0.0,34,0.00,,---,0.00,VWS V14.01,2013-02-06 00:26:00,
2013-02-05 16:31:00,45.8,19.7,30.02,East,94,0.0,0.0,35,0.00,,---,0.00,VWS V14.01,2013-02-06 00:31:00,
2013-02-05 16:36:00,45.4,20.0,30.02,East,92,0.0,0.0,36,0.00,,---,0.00,VWS V14.01,2013-02-06 00:36:00,
2013-02-05 16:41:00,45.0,20.3,30.01,East,92,0.0,0.0,37,0.00,,---,0.00,VWS V14.01,2013-02-06 00:41:00,
2013-02-05 16:46:00,44.5,20.5,30.01,East,92,0.0,0.0,38,0.00,,---,0.00,VWS V14.01,2013-02-06 00:46:00,
2013-02-05 16:51:00,44.0,20.0,30.01,East,91,0.0,0.0,38,0.00,,---,0.00,VWS V14.01,2013-02-06 00:51:00,
2013-02-05 16:56:00,43.5,20.2,30.01,East,92,0.0,0.0,39,0.00,,---,0.00,VWS V14.01,2013-02-06 00:56:00,
2013-02-05 17:01:00,43.0,21.5,30.01,East,94,0.0,0.0,42,0.00,,---,0.00,VWS V14.01,2013-02-06 01:01:00,
2013-02-05 17:06:00,42.5,21.0,30.02,East,92,0.0,0.0,42,0.00,,---,0.00,VWS V14.01,2013-02-06 01:06:00,
2013-02-05 17:11:00,42.0,21.1,30.01,East,92,0.0,0.0,43,0.00,,---,0.00,VWS V14.01,2013-02-06 01:11:00,
2013-02-05 17:16:00,41.5,21.2,30.01,East,94,0.0,0.0,44,0.00,,---,0.00,VWS V14.01,2013-02-06 01:16:00,
2013-02-05 17:21:00,41.1,21.4,30.01,East,94,0.0,0.0,45,0.00,,---,0.00,VWS V14.01,2013-02-06 01:21:00,
2013-02-05 17:26:00,40.6,22.5,30.01,East,94,0.0,0.0,48,0.00,,---,0.00,VWS V14.01,2013-02-06 01:26:00,
2013-02-05 17:32:00,40.2,23.1,30.01,East,94,0.0,0.0,50,0.00,,---,0.00,VWS V14.01,2013-02-06 01:32:00,
2013-02-05 17:37:00,39.9,24.6,30.01,East,94,0.0,0.0,54,0.00,,---,0.00,VWS V14.01,2013-02-06 01:37:00,
2013-02-05 17:42:00,39.5,25.5,30.01,East,94,0.0,0.0,57,0.00,,---,0.00,VWS V14.01,2013-02-06 01:42:00,
2013-02-05 17:47:00,39.2,26.1,30.01,East,94,0.0,0.0,59,0.00,,---,0.00,VWS V14.01,2013-02-06 01:47:00,
2013-02-05 17:52:00,38.9,26.2,30.01,East,94,0.0,0.0,60,0.00,,---,0.00,VWS V14.01,2013-02-06 01:52:00,
2013-02-05 17:57:00,38.6,26.3,30.01,East,93,0.0,0.0,61,0.00,,---,0.00,VWS V14.01,2013-02-06 01:57:00,
2013-02-05 18:02:00,38.4,25.7,30.01,East,94,0.0,0.0,60,0.00,,---,0.00,VWS V14.01,2013-02-06 02:02:00,
2013-02-05 18:07:00,38.1,24.6,30.01,East,94,0.0,0.0,58,0.00,,---,0.00,VWS V14.01,2013-02-06 02:07:00,
2013-02-05 18:12:00,37.9,24.0,30.01,East,94,0.0,0.0,57,0.00,,---,0.00,VWS V14.01,2013-02-06 02:12:00,
2013-02-05 18:17:00,37.9,24.5,30.01,WNW,297,0.0,0.0,58,0.00,,---,0.00,VWS V14.01,2013-02-06 02:17:00,
2013-02-05 18:22:00,37.8,24.4,30.02,WNW,297,0.0,0.0,58,0.00,,---,0.00,VWS V14.01,2013-02-06 02:22:00,
2013-02-05 18:27:00,37.4,24.0,30.02,WNW,298,0.0,0.0,58,0.00,,---,0.00,VWS V14.01,2013-02-06 02:27:00,
2013-02-05 18:32:00,36.9,24.3,30.02,WNW,297,0.0,0.0,60,0.00,,---,0.00,VWS V14.01,2013-02-06 02:32:00,
2013-02-05 18:37:00,36.5,24.3,30.02,WNW,297,0.0,0.0,61,0.00,,---,0.00,VWS V14.01,2013-02-06 02:37:00,
2013-02-05 18:42:00,36.2,24.1,30.02,WNW,297,0.0,0.0,61,0.00,,---,0.00,VWS V14.01,2013-02-06 02:42:00,
2013-02-05 18:47:00,36.0,23.5,30.02,WNW,298,0.0,0.0,60,0.00,,---,0.00,VWS V14.01,2013-02-06 02:47:00,
2013-02-05 18:52:00,35.8,23.3,30.02,WNW,297,0.0,0.0,60,0.00,,---,0.00,VWS V14.01,2013-02-06 02:52:00,
2013-02-05 18:57:00,35.7,23.6,30.02,WNW,288,0.0,0.0,61,0.00,,---,0.00,VWS V14.01,2013-02-06 02:57:00,
2013-02-05 19:02:00,35.5,23.8,30.02,WNW,288,0.0,0.0,62,0.00,,---,0.00,VWS V14.01,2013-02-06 03:02:00,
2013-02-05 19:08:00,35.3,23.6,30.02,WNW,288,0.0,0.0,62,0.00,,---,0.00,VWS V14.01,2013-02-06 03:08:00,
2013-02-05 19:13:00,35.1,23.4,30.02,WNW,288,0.0,0.0,62,0.00,,---,0.00,VWS V14.01,2013-02-06 03:13:00,
2013-02-05 19:18:00,35.0,23.7,30.03,WNW,288,0.0,0.0,63,0.00,,---,0.00,VWS V14.01,2013-02-06 03:18:00,
2013-02-05 19:23:00,35.0,24.1,30.02,WNW,288,0.0,0.0,64,0.00,,---,0.00,VWS V14.01,2013-02-06 03:23:00,
2013-02-05 19:28:00,35.1,24.2,30.02,WNW,288,0.0,0.0,64,0.00,,---,0.00,VWS V14.01,2013-02-06 03:28:00,
2013-02-05 19:33:00,35.3,24.7,30.02,WNW,288,0.0,0.0,65,0.00,,---,0.00,VWS V14.01,2013-02-06 03:33:00,
2013-02-05 19:38:00,35.3,24.7,30.02,WNW,288,0.0,0.0,65,0.00,,---,0.00,VWS V14.01,2013-02-06 03:38:00,
2013-02-05 19:43:00,35.2,25.0,30.02,WNW,288,0.0,0.0,66,0.00,,---,0.00,VWS V14.01,2013-02-06 03:43:00,
2013-02-05 19:48:00,35.2,25.0,30.03,WNW,288,0.0,0.0,66,0.00,,---,0.00,VWS V14.01,2013-02-06 03:48:00,
2013-02-05 19:53:00,35.2,25.0,30.03,WNW,288,0.0,0.0,66,0.00,,---,0.00,VWS V14.01,2013-02-06 03:53:00,
2013-02-05 19:58:00,35.3,25.1,30.03,WNW,288,0.0,0.0,66,0.00,,---,0.00,VWS V14.01,2013-02-06 03:58:00,
2013-02-05 20:03:00,35.2,25.0,30.03,WNW,288,0.0,0.0,66,0.00,,---,0.00,VWS V14.01,2013-02-06 04:03:00,
2013-02-05 20:08:00,35.0,25.2,30.03,WNW,288,0.0,0.0,67,0.00,,---,0.00,VWS V14.01,2013-02-06 04:08:00,
2013-02-05 20:13:00,34.8,25.3,30.03,WNW,288,0.0,0.0,68,0.00,,---,0.00,VWS V14.01,2013-02-06 04:13:00,
2013-02-05 20:19:00,34.6,25.5,30.02,WNW,288,0.0,0.0,69,0.00,,---,0.00,VWS V14.01,2013-02-06 04:19:00,
2013-02-05 20:24:00,34.4,25.6,30.02,WNW,288,0.0,0.0,70,0.00,,---,0.00,VWS V14.01,2013-02-06 04:24:00,
2013-02-05 20:29:00,34.1,25.4,30.02,WNW,288,0.0,0.0,70,0.00,,---,0.00,VWS V14.01,2013-02-06 04:29:00,
2013-02-05 20:34:00,34.0,25.3,30.02,WNW,288,0.0,0.0,70,0.00,,---,0.00,VWS V14.01,2013-02-06 04:34:00,
2013-02-05 20:39:00,33.9,25.2,30.03,WNW,288,0.0,0.0,70,0.00,,---,0.00,VWS V14.01,2013-02-06 04:39:00,
2013-02-05 20:44:00,33.9,25.2,30.03,West,263,0.0,0.0,70,0.00,,---,0.00,VWS V14.01,2013-02-06 04:44:00,
2013-02-05 20:49:00,34.1,25.0,30.03,West,262,0.0,0.0,69,0.00,,---,0.00,VWS V14.01,2013-02-06 04:49:00,
2013-02-05 20:54:00,34.3,25.2,30.03,West,263,0.0,0.0,69,0.00,,---,0.00,VWS V14.01,2013-02-06 04:54:00,
2013-02-05 20:59:00,34.7,25.6,30.03,WSW,257,0.0,0.0,69,0.00,,---,0.00,VWS V14.01,2013-02-06 04:59:00,
2013-02-05 21:00:00,34.7,25.6,30.02,WSW,257,0.0,0.0,69,0.00,,---,0.00,VWS V14.01,2013-02-06 05:00:00,
2013-02-05 21:01:00,34.8,25.3,30.03,WSW,257,0.0,0.0,68,0.00,,---,0.00,VWS V14.01,2013-02-06 05:01:00,
2013-02-05 21:03:00,34.8,25.3,30.03,WSW,257,0.0,0.0,68,0.00,,---,0.00,VWS V14.01,2013-02-06 05:03:00,
2013-02-05 21:08:00,35.1,25.3,30.03,WSW,258,0.0,0.0,67,0.00,,---,0.00,VWS V14.01,2013-02-06 05:08:00,
2013-02-05 21:13:00,35.3,25.5,30.02,WSW,257,0.0,0.0,67,0.00,,---,0.00,VWS V14.01,2013-02-06 05:13:00,
2013-02-05 21:18:00,35.6,25.4,30.02,SW,215,0.0,0.0,66,0.00,,---,0.00,VWS V14.01,2013-02-06 05:18:00,
2013-02-05 21:23:00,35.7,25.1,30.02,North,354,0.0,0.0,65,0.00,,---,0.00,VWS V14.01,2013-02-06 05:23:00,
2013-02-05 21:28:00,35.8,25.2,30.02,ESE,102,0.0,0.0,65,0.00,,---,0.00,VWS V14.01,2013-02-06 05:28:00,
2013-02-05 21:33:00,35.8,25.2,30.02,ESE,102,0.0,0.0,65,0.00,,---,0.00,VWS V14.01,2013-02-06 05:33:00,
2013-02-05 21:38:00,35.7,25.1,30.02,ESE,115,0.0,0.0,65,0.00,,---,0.00,VWS V14.01,2013-02-06 05:38:00,
2013-02-05 21:43:00,35.9,24.9,30.02,NW,312,0.0,0.0,64,0.00,,---,0.00,VWS V14.01,2013-02-06 05:43:00,
2013-02-05 21:48:00,36.0,24.6,30.02,NW,312,0.0,0.0,63,0.00,,---,0.00,VWS V14.01,2013-02-06 05:48:00,
2013-02-05 21:53:00,36.1,24.7,30.02,WNW,293,0.0,0.0,63,0.00,,---,0.00,VWS V14.01,2013-02-06 05:53:00,
2013-02-05 21:58:00,36.2,24.8,30.02,WNW,294,0.0,0.0,63,0.00,,---,0.00,VWS V14.01,2013-02-06 05:58:00,
2013-02-05 22:03:00,36.3,24.9,30.02,WNW,294,0.0,0.0,63,0.00,,---,0.00,VWS V14.01,2013-02-06 06:03:00,
2013-02-05 22:08:00,36.2,24.8,30.02,WNW,283,0.0,0.0,63,0.00,,---,0.00,VWS V14.01,2013-02-06 06:08:00,
2013-02-05 22:13:00,36.3,24.9,30.02,West,268,0.0,0.0,63,0.00,,---,0.00,VWS V14.01,2013-02-06 06:13:00,
2013-02-05 22:18:00,36.5,25.1,30.02,West,260,0.0,0.0,63,0.00,,---,0.00,VWS V14.01,2013-02-06 06:18:00,
2013-02-05 22:23:00,36.4,25.0,30.02,WNW,286,1.0,1.0,63,0.00,,---,0.00,VWS V14.01,2013-02-06 06:23:00,
2013-02-05 22:28:00,36.5,25.1,30.02,NW,307,0.0,0.0,63,0.00,,---,0.00,VWS V14.01,2013-02-06 06:28:00,
2013-02-05 22:33:00,36.7,25.3,30.02,West,263,0.0,0.0,63,0.00,,---,0.00,VWS V14.01,2013-02-06 06:33:00,
2013-02-05 22:39:00,37.0,25.6,30.02,North,360,0.0,0.0,63,0.00,,---,0.00,VWS V14.01,2013-02-06 06:39:00,
2013-02-05 22:44:00,36.9,25.5,30.01,WNW,285,0.0,0.0,63,0.00,,---,0.00,VWS V14.01,2013-02-06 06:44:00,
2013-02-05 22:49:00,36.7,25.3,30.01,SW,218,0.0,0.0,63,0.00,,---,0.00,VWS V14.01,2013-02-06 06:49:00,
2013-02-05 22:54:00,36.4,25.0,30.01,SW,219,0.0,0.0,63,0.00,,---,0.00,VWS V14.01,2013-02-06 06:54:00,
2013-02-05 22:59:00,36.0,24.6,30.01,SW,218,0.0,0.0,63,0.00,,---,0.00,VWS V14.01,2013-02-06 06:59:00,
2013-02-05 23:04:00,35.7,24.4,30.01,West,278,0.0,0.0,63,0.00,,---,0.00,VWS V14.01,2013-02-06 07:04:00,
2013-02-05 23:09:00,35.5,23.8,30.01,West,273,0.0,0.0,62,0.00,,---,0.00,VWS V14.01,2013-02-06 07:09:00,
2013-02-05 23:14:00,35.4,23.7,30.01,SSW,198,0.0,0.0,62,0.00,,---,0.00,VWS V14.01,2013-02-06 07:14:00,
2013-02-05 23:19:00,35.4,23.7,30.01,SSW,198,0.0,0.0,62,0.00,,---,0.00,VWS V14.01,2013-02-06 07:19:00,
2013-02-05 23:24:00,35.4,23.3,30.01,SSW,198,0.0,0.0,61,0.00,,---,0.00,VWS V14.01,2013-02-06 07:24:00,
2013-02-05 23:29:00,35.6,23.1,30.00,SE,131,0.0,0.0,60,0.00,,---,0.00,VWS V14.01,2013-02-06 07:29:00,
2013-02-05 23:34:00,35.7,23.2,30.01,South,186,0.0,0.0,60,0.00,,---,0.00,VWS V14.01,2013-02-06 07:34:00,
2013-02-05 23:39:00,35.8,23.3,30.01,SSW,200,0.0,0.0,60,0.00,,---,0.00,VWS V14.01,2013-02-06 07:39:00,
2013-02-05 23:44:00,36.0,23.1,30.00,SSW,198,0.0,0.0,59,0.00,,---,0.00,VWS V14.01,2013-02-06 07:44:00,
2013-02-05 23:49:00,36.0,23.1,30.01,SW,217,0.0,1.0,59,0.00,,---,0.00,VWS V14.01,2013-02-06 07:49:00,
2013-02-05 23:54:00,36.1,23.2,30.01,SSE,159,0.0,0.0,59,0.00,,---,0.00,VWS V14.01,2013-02-06 07:54:00,
2013-02-05 23:59:00,36.0,23.1,30.01,ESE,111,0.0,1.0,59,0.00,,---,0.00,VWS V14.01,2013-02-06 07:59:00,